createdAt,value
2022-10-15T00:01:50.410Z,55.77
2022-10-15T00:04:19.177Z,59.23
2022-10-15T00:06:47.930Z,55.30
2022-10-15T00:09:16.650Z,57.83
2022-10-15T00:11:45.279Z,55.60
2022-10-15T00:14:15.815Z,55.17
2022-10-15T00:16:44.541Z,58.23
2022-10-15T00:19:13.295Z,59.57
2022-10-15T00:21:41.954Z,60.83
2022-10-15T00:24:10.667Z,64.00
2022-10-15T00:26:39.295Z,65.47
2022-10-15T00:29:08.458Z,62.73
2022-10-15T00:31:38.627Z,64.70
2022-10-15T00:34:07.339Z,61.17
2022-10-15T00:36:37.891Z,62.03
2022-10-15T00:39:08.216Z,63.53
2022-10-15T00:41:39.443Z,64.30
2022-10-15T00:44:41.347Z,64.23
2022-10-15T00:47:16.927Z,59.43
2022-10-15T00:49:49.618Z,62.17
2022-10-15T00:52:21.711Z,64.77
2022-10-15T00:54:54.342Z,62.37
2022-10-15T00:57:23.233Z,63.20
2022-10-15T00:59:55.623Z,66.30
2022-10-15T01:02:26.009Z,61.40
2022-10-15T01:04:55.485Z,63.17
2022-10-15T01:07:24.233Z,59.93
2022-10-15T01:09:53.170Z,61.40
2022-10-15T01:12:35.010Z,61.23
2022-10-15T01:15:10.395Z,62.20
2022-10-15T01:17:47.020Z,62.73
2022-10-15T01:20:56.838Z,63.93
2022-10-15T01:23:59.363Z,60.27
2022-10-15T01:26:47.644Z,59.60
2022-10-15T01:29:24.085Z,63.13
2022-10-15T01:32:02.819Z,62.60
2022-10-15T01:34:38.009Z,63.27
2022-10-15T01:37:11.458Z,68.63
2022-10-15T01:39:43.751Z,69.53
2022-10-15T01:42:18.868Z,68.17
2022-10-15T01:44:52.585Z,68.93
2022-10-15T01:47:29.414Z,69.20
2022-10-15T01:49:59.492Z,65.93
2022-10-15T01:52:32.571Z,66.93
2022-10-15T01:55:02.991Z,68.87
2022-10-15T01:57:34.074Z,66.57
2022-10-15T02:00:04.236Z,66.87
2022-10-15T02:02:34.313Z,69.03
2022-10-15T02:05:06.795Z,66.17
2022-10-15T02:07:45.149Z,68.40
2022-10-15T02:10:20.643Z,66.87
2022-10-15T02:13:04.796Z,66.90
2022-10-15T02:15:43.441Z,63.67
2022-10-15T02:18:20.843Z,65.93
2022-10-15T02:20:57.020Z,67.20
2022-10-15T02:23:36.404Z,67.60
2022-10-15T02:26:08.662Z,68.13
2022-10-15T02:28:42.975Z,65.87
2022-10-15T02:31:14.171Z,68.17
2022-10-15T02:33:45.233Z,65.97
2022-10-15T02:36:14.610Z,60.87
2022-10-15T02:38:45.861Z,63.33
2022-10-15T02:41:14.828Z,63.70
2022-10-15T02:43:43.789Z,61.93
2022-10-15T02:46:16.055Z,60.73
2022-10-15T02:48:46.207Z,61.53
2022-10-15T02:51:14.920Z,62.30
2022-10-15T02:53:43.559Z,59.33
2022-10-15T02:56:12.329Z,61.60
2022-10-15T02:58:41.031Z,59.63
2022-10-15T03:01:09.750Z,59.03
2022-10-15T03:03:38.505Z,58.90
2022-10-15T03:06:09.168Z,59.10
2022-10-15T03:08:37.856Z,60.27
2022-10-15T03:11:06.547Z,57.53
2022-10-15T03:13:38.059Z,58.00
2022-10-15T03:16:07.332Z,57.80
2022-10-15T03:18:39.723Z,57.00
2022-10-15T03:21:11.272Z,58.07
2022-10-15T03:23:40.549Z,57.17
2022-10-15T03:26:09.589Z,56.37
2022-10-15T03:28:38.416Z,58.20
2022-10-15T03:31:07.301Z,56.93
2022-10-15T03:33:35.912Z,55.33
2022-10-15T03:36:04.554Z,55.27
2022-10-15T03:38:34.693Z,57.50
2022-10-15T03:41:03.486Z,58.27
2022-10-15T03:43:32.118Z,56.77
2022-10-15T03:46:03.747Z,61.67
2022-10-15T03:48:32.674Z,56.67
2022-10-15T03:51:01.370Z,57.37
2022-10-15T03:53:30.775Z,54.20
2022-10-15T03:56:06.283Z,55.90
2022-10-15T03:58:35.034Z,58.03
2022-10-15T04:01:03.820Z,57.70
2022-10-15T04:03:32.715Z,56.73
2022-10-15T04:06:03.410Z,59.33
2022-10-15T04:08:32.150Z,54.63
2022-10-15T04:11:00.828Z,57.87
2022-10-15T04:13:31.105Z,57.70
2022-10-15T04:15:59.755Z,58.30
2022-10-15T04:18:28.488Z,58.70
2022-10-15T04:21:00.762Z,57.90
2022-10-15T04:23:29.785Z,56.73
2022-10-15T04:26:01.482Z,59.93
2022-10-15T04:28:31.597Z,56.67
2022-10-15T04:31:26.274Z,57.97
2022-10-15T04:33:54.998Z,58.30
2022-10-15T04:36:23.770Z,58.20
2022-10-15T04:38:52.483Z,58.80
2022-10-15T04:41:21.165Z,57.73
2022-10-15T04:43:51.241Z,56.13
2022-10-15T04:46:22.526Z,56.40
2022-10-15T04:48:52.889Z,57.53
2022-10-15T04:51:23.032Z,59.03
2022-10-15T04:53:51.891Z,56.20
2022-10-15T04:56:22.891Z,57.07
2022-10-15T04:58:53.142Z,60.00
2022-10-15T05:01:22.577Z,56.20
2022-10-15T05:03:51.482Z,57.17
2022-10-15T05:06:21.759Z,61.07
2022-10-15T05:08:51.414Z,57.80
2022-10-15T05:11:21.737Z,56.17
2022-10-15T05:13:50.830Z,54.40
2022-10-15T05:16:22.541Z,57.83
2022-10-15T05:18:53.771Z,61.22
2022-10-15T05:21:22.736Z,59.33
2022-10-15T05:23:52.013Z,56.07
2022-10-15T05:26:23.309Z,69.00
2022-10-15T05:28:52.845Z,60.40
2022-10-15T05:31:24.811Z,59.83
2022-10-15T05:33:54.999Z,57.07
2022-10-15T05:36:26.055Z,55.67
2022-10-15T05:38:56.038Z,53.43
2022-10-15T05:41:25.955Z,52.23
2022-10-15T05:43:56.851Z,53.00
2022-10-15T05:46:28.108Z,51.60
2022-10-15T05:48:58.387Z,51.00
2022-10-15T05:51:28.677Z,53.67
2022-10-15T05:53:58.226Z,54.07
2022-10-15T05:56:27.644Z,52.73
2022-10-15T05:58:56.685Z,54.40
2022-10-15T06:01:26.900Z,56.00
2022-10-15T06:03:56.108Z,53.67
2022-10-15T06:06:26.525Z,54.07
2022-10-15T06:08:55.865Z,54.07
2022-10-15T06:11:24.520Z,53.57
2022-10-15T06:13:53.124Z,53.27
2022-10-15T06:16:24.041Z,56.50
2022-10-15T06:18:54.974Z,54.60
2022-10-15T06:21:23.608Z,56.63
2022-10-15T06:23:52.441Z,60.20
2022-10-15T06:26:21.127Z,56.47
2022-10-15T06:28:49.908Z,61.80
2022-10-15T06:31:18.613Z,54.93
2022-10-15T06:33:47.315Z,55.00
2022-10-15T06:36:17.651Z,57.10
2022-10-15T06:38:48.265Z,57.13
2022-10-15T06:41:17.256Z,53.03
2022-10-15T06:43:46.518Z,54.30
2022-10-15T06:46:15.194Z,51.90
2022-10-15T06:48:43.919Z,54.40
2022-10-15T06:51:14.096Z,51.90
2022-10-15T06:53:44.221Z,54.27
2022-10-15T06:56:12.946Z,52.20
2022-10-15T06:58:44.121Z,49.83
2022-10-15T07:01:13.146Z,48.30
2022-10-15T07:03:42.040Z,48.27
2022-10-15T07:06:11.438Z,47.53
2022-10-15T07:08:40.031Z,44.37
2022-10-15T07:11:11.002Z,45.00
2022-10-15T07:13:40.277Z,47.57
2022-10-15T07:16:10.888Z,45.40
2022-10-15T07:18:40.705Z,47.27
2022-10-15T07:23:40.296Z,46.37
2022-10-15T07:26:10.373Z,43.37
2022-10-15T07:28:39.188Z,44.50
2022-10-15T07:31:09.115Z,45.57
2022-10-15T07:33:38.112Z,43.40
2022-10-15T07:36:08.700Z,42.97
2022-10-15T07:38:38.049Z,45.73
2022-10-15T07:41:07.387Z,42.00
2022-10-15T07:43:38.615Z,40.97
2022-10-15T07:46:07.586Z,42.43
2022-10-15T07:48:36.262Z,37.43
2022-10-15T07:51:07.195Z,37.90
2022-10-15T07:53:36.003Z,37.80
2022-10-15T07:56:08.068Z,44.87
2022-10-15T07:58:39.166Z,42.47
2022-10-15T08:01:09.307Z,41.70
2022-10-15T08:03:38.584Z,42.00
2022-10-15T08:06:09.281Z,40.30
2022-10-15T08:08:38.925Z,34.80
2022-10-15T08:11:08.690Z,35.27
2022-10-15T08:13:41.524Z,33.80
2022-10-15T08:16:11.349Z,33.30
2022-10-15T08:18:40.385Z,32.00
2022-10-15T08:21:09.846Z,34.77
2022-10-15T08:23:38.595Z,35.47
2022-10-15T08:26:07.658Z,48.50
2022-10-15T08:28:39.049Z,33.73
2022-10-15T08:31:08.468Z,31.57
2022-10-15T08:33:38.539Z,33.27
2022-10-15T08:36:07.698Z,33.13
2022-10-15T08:38:37.603Z,31.23
2022-10-15T08:41:15.756Z,33.13
2022-10-15T08:43:49.335Z,34.60
2022-10-15T08:46:22.454Z,33.57
2022-10-15T08:48:55.312Z,43.93
2022-10-15T08:51:27.118Z,38.23
2022-10-15T08:53:59.212Z,39.60
2022-10-15T08:56:32.927Z,44.67
2022-10-15T08:59:11.895Z,42.47
2022-10-15T09:01:49.776Z,39.57
2022-10-15T09:07:06.884Z,38.37
2022-10-15T09:09:43.428Z,36.87
2022-10-15T09:12:37.859Z,34.93
2022-10-15T09:15:17.199Z,33.50
2022-10-15T09:17:48.710Z,32.57
2022-10-15T09:20:19.760Z,32.90
2022-10-15T09:22:52.377Z,32.40
2022-10-15T09:25:26.433Z,34.70
2022-10-15T09:28:00.567Z,35.20
2022-10-15T09:30:36.060Z,35.57
2022-10-15T09:33:09.845Z,32.23
2022-10-15T09:35:46.527Z,33.93
2022-10-15T09:38:30.080Z,33.13
2022-10-15T09:41:16.651Z,37.50
2022-10-15T09:43:49.613Z,32.33
2022-10-15T09:46:19.687Z,33.83
2022-10-15T09:48:54.025Z,36.10
2022-10-15T09:51:28.845Z,36.83
2022-10-15T09:54:03.935Z,38.27
2022-10-15T09:56:38.275Z,33.67
2022-10-15T09:59:09.731Z,115.60
2022-10-15T10:01:40.481Z,46.80
2022-10-15T10:04:15.524Z,39.30
2022-10-15T10:06:51.285Z,37.40
2022-10-15T10:09:22.737Z,35.83
2022-10-15T10:11:55.091Z,39.40
2022-10-15T10:14:30.420Z,49.00
2022-10-15T10:17:21.344Z,43.30
2022-10-15T10:20:17.220Z,45.40
2022-10-15T10:22:51.247Z,52.17
2022-10-15T10:25:35.819Z,57.22
2022-10-15T10:28:17.693Z,53.30
2022-10-15T10:30:54.613Z,53.90
2022-10-15T10:33:28.657Z,31.40
2022-10-15T10:35:58.234Z,32.60
2022-10-15T10:38:30.515Z,33.92
2022-10-15T10:41:05.575Z,29.75
2022-10-15T10:43:39.106Z,33.97
2022-10-15T10:46:19.865Z,30.90
2022-10-15T10:48:51.972Z,30.40
2022-10-15T10:51:22.845Z,30.95
2022-10-15T10:53:55.220Z,30.65
2022-10-15T10:56:26.178Z,27.20
2022-10-15T10:59:03.084Z,30.83
2022-10-15T11:01:31.897Z,27.55
2022-10-15T11:04:02.061Z,27.40
2022-10-15T11:06:57.565Z,28.42
2022-10-15T11:09:43.691Z,27.17
2022-10-15T11:12:40.716Z,26.63
2022-10-15T11:15:25.251Z,23.88
2022-10-15T11:18:04.467Z,26.13
2022-10-15T11:20:57.818Z,24.60
2022-10-15T11:23:42.063Z,23.05
2022-10-15T11:26:26.962Z,26.13
2022-10-15T11:29:05.295Z,22.08
2022-10-15T11:31:49.101Z,24.17
2022-10-15T11:34:41.780Z,24.38
2022-10-15T11:37:25.524Z,25.15
2022-10-15T11:40:07.706Z,24.73
2022-10-15T11:42:41.067Z,23.33
2022-10-15T11:45:33.226Z,24.50
2022-10-15T11:48:06.131Z,23.55
2022-10-15T11:50:39.039Z,23.63
2022-10-15T11:53:31.370Z,25.50
2022-10-15T11:56:06.099Z,25.90
2022-10-15T11:58:38.251Z,25.98
2022-10-15T12:01:14.403Z,25.15
2022-10-15T12:03:51.328Z,29.03
2022-10-15T12:06:22.877Z,77.70
2022-10-15T12:08:55.207Z,32.28
2022-10-15T12:11:34.788Z,27.02
2022-10-15T12:14:15.105Z,39.58
2022-10-15T12:16:50.092Z,24.45
2022-10-15T12:19:21.890Z,29.05
2022-10-15T12:22:08.353Z,32.85
2022-10-15T12:24:56.580Z,38.08
2022-10-15T12:27:35.839Z,36.78
2022-10-15T12:30:32.558Z,36.25
2022-10-15T12:33:01.918Z,49.50
2022-10-15T12:35:36.539Z,36.63
2022-10-15T12:38:21.449Z,33.25
2022-10-15T12:40:59.109Z,31.83
2022-10-15T12:43:29.747Z,29.33
2022-10-15T12:46:02.675Z,29.42
2022-10-15T12:48:34.822Z,27.80
2022-10-15T12:51:47.135Z,27.48
2022-10-15T12:54:44.445Z,24.65
2022-10-15T12:58:01.784Z,24.52
2022-10-15T13:00:44.131Z,23.83
2022-10-15T13:03:39.850Z,27.65
2022-10-15T13:06:28.128Z,28.42
2022-10-15T13:09:03.319Z,28.15
2022-10-15T13:11:34.616Z,28.75
2022-10-15T13:14:11.011Z,28.63
2022-10-15T13:16:45.564Z,33.53
2022-10-15T13:19:20.758Z,30.63
2022-10-15T13:21:54.576Z,150.30
2022-10-15T13:24:26.327Z,37.97
2022-10-15T13:26:57.498Z,33.17
2022-10-15T13:29:29.237Z,31.30
2022-10-15T13:32:02.331Z,32.35
2022-10-15T13:34:37.361Z,30.40
2022-10-15T13:37:06.639Z,34.75
2022-10-15T13:39:38.688Z,36.45
2022-10-15T13:42:10.619Z,28.10
2022-10-15T13:44:39.746Z,27.60
2022-10-15T13:47:27.322Z,25.25
2022-10-15T13:50:14.686Z,23.15
2022-10-15T13:52:46.383Z,21.75
2022-10-15T13:55:24.124Z,22.33
2022-10-15T13:57:57.322Z,24.77
2022-10-15T14:00:29.768Z,23.50
2022-10-15T14:03:22.520Z,30.77
2022-10-15T14:05:53.110Z,27.50
2022-10-15T14:08:25.190Z,25.40
2022-10-15T14:11:36.250Z,142.57
2022-10-15T14:14:05.233Z,28.48
2022-10-15T14:16:40.923Z,29.48
2022-10-15T14:19:17.569Z,27.70
2022-10-15T14:21:48.830Z,29.33
2022-10-15T14:24:20.922Z,30.13
2022-10-15T14:26:50.339Z,28.45
2022-10-15T14:29:24.279Z,30.00
2022-10-15T14:31:53.176Z,32.30
2022-10-15T14:34:42.649Z,32.47
2022-10-15T14:37:33.336Z,31.52
2022-10-15T14:40:14.302Z,34.58
2022-10-15T14:42:45.437Z,41.75
2022-10-15T14:45:16.219Z,45.15
2022-10-15T14:47:48.454Z,44.80
2022-10-15T14:50:20.621Z,42.00
2022-10-15T14:52:52.272Z,36.33
2022-10-15T14:55:33.552Z,30.10
2022-10-15T14:58:09.336Z,26.45
2022-10-15T15:00:44.149Z,32.28
2022-10-15T15:03:17.397Z,29.00
2022-10-15T15:05:49.854Z,31.67
2022-10-15T15:08:19.002Z,35.37
2022-10-15T15:13:22.186Z,31.43
2022-10-15T15:15:51.275Z,30.43
2022-10-15T15:18:20.474Z,32.77
2022-10-15T15:20:52.169Z,29.70
2022-10-15T15:23:24.165Z,32.43
2022-10-15T15:25:54.438Z,26.83
2022-10-15T15:28:25.464Z,27.43
2022-10-15T15:30:58.905Z,32.93
2022-10-15T15:33:28.464Z,30.83
2022-10-15T15:36:04.003Z,39.43
2022-10-15T15:38:33.651Z,43.37
2022-10-15T15:41:04.916Z,41.77
2022-10-15T15:43:33.692Z,40.40
2022-10-15T15:46:02.762Z,45.13
2022-10-15T15:48:31.808Z,44.17
2022-10-15T15:51:05.497Z,44.60
2022-10-15T15:53:35.564Z,45.33
2022-10-15T15:56:04.340Z,42.60
2022-10-15T15:58:33.213Z,41.60
2022-10-15T16:01:02.045Z,40.83
2022-10-15T16:03:30.990Z,45.67
2022-10-15T16:05:59.904Z,50.03
2022-10-15T16:08:30.335Z,52.77
2022-10-15T16:11:03.525Z,53.87
2022-10-15T16:13:32.512Z,46.73
2022-10-15T16:16:01.364Z,45.57
2022-10-15T16:18:30.116Z,47.33
2022-10-15T16:20:59.170Z,49.83
2022-10-15T16:23:27.979Z,50.30
2022-10-15T16:25:58.569Z,49.23
2022-10-15T16:28:27.393Z,48.30
2022-10-15T16:31:36.707Z,44.50
2022-10-15T16:34:05.925Z,42.90
2022-10-15T16:36:34.735Z,54.13
2022-10-15T16:39:03.744Z,47.87
2022-10-15T16:41:34.057Z,53.23
2022-10-15T16:44:02.686Z,61.93
2022-10-15T16:46:31.368Z,52.87
2022-10-15T16:49:00.472Z,54.57
2022-10-15T16:54:03.630Z,69.47
2022-10-15T16:56:34.668Z,66.67
2022-10-15T16:59:03.511Z,50.93
2022-10-15T17:01:32.387Z,48.10
2022-10-15T17:04:01.449Z,57.03
2022-10-15T17:06:32.273Z,57.50
2022-10-15T17:09:03.851Z,62.50
2022-10-15T17:11:36.197Z,64.57
2022-10-15T17:14:07.679Z,49.10
2022-10-15T17:16:39.381Z,60.70
2022-10-15T17:19:09.368Z,59.23
2022-10-15T17:21:41.325Z,53.77
2022-10-15T17:24:14.534Z,58.93
2022-10-15T17:26:46.184Z,40.07
2022-10-15T17:29:20.499Z,45.83
2022-10-15T17:31:51.053Z,60.63
2022-10-15T17:34:22.011Z,59.30
2022-10-15T17:36:52.540Z,58.63
2022-10-15T17:39:22.922Z,64.97
2022-10-15T17:41:53.915Z,60.17
2022-10-15T17:44:23.148Z,53.10
2022-10-15T17:46:53.054Z,45.80
2022-10-15T17:49:22.510Z,44.67
2022-10-15T17:51:51.878Z,52.63
2022-10-15T17:54:20.694Z,53.57
2022-10-15T17:56:49.854Z,58.83
2022-10-15T17:59:20.226Z,76.90
2022-10-15T18:02:04.208Z,70.57
2022-10-15T18:04:33.115Z,67.77
2022-10-15T18:07:02.103Z,66.10
2022-10-15T18:09:30.968Z,75.87
2022-10-15T18:12:01.627Z,59.97
2022-10-15T18:14:32.266Z,60.00
2022-10-15T18:17:01.131Z,61.77
2022-10-15T18:19:30.680Z,61.93
2022-10-15T18:21:59.850Z,44.33
2022-10-15T18:24:28.636Z,43.60
2022-10-15T18:26:57.409Z,42.37
2022-10-15T18:29:26.273Z,44.50
2022-10-15T18:31:58.153Z,40.60
2022-10-15T18:34:27.468Z,42.73
2022-10-15T18:36:56.478Z,41.73
2022-10-15T18:39:25.833Z,41.93
2022-10-15T18:41:54.678Z,44.33
2022-10-15T18:44:23.828Z,41.10
2022-10-15T18:46:53.242Z,44.43
2022-10-15T18:49:23.449Z,44.00
2022-10-15T18:51:53.294Z,43.37
2022-10-15T18:54:23.245Z,38.87
2022-10-15T18:56:52.805Z,39.63
2022-10-15T18:59:21.605Z,39.93
2022-10-15T19:01:50.991Z,39.27
2022-10-15T19:04:20.407Z,37.00
2022-10-15T19:06:52.191Z,39.37
2022-10-15T19:09:22.521Z,40.13
2022-10-15T19:11:53.997Z,41.93
2022-10-15T19:14:23.984Z,40.03
2022-10-15T19:16:53.570Z,39.10
2022-10-15T19:19:24.025Z,39.13
2022-10-15T19:21:56.047Z,39.83
2022-10-15T19:24:25.804Z,37.17
2022-10-15T19:26:54.706Z,38.47
2022-10-15T19:29:23.782Z,40.57
2022-10-15T19:31:54.158Z,37.50
2022-10-15T19:34:23.896Z,40.37
2022-10-15T19:36:54.338Z,38.20
2022-10-15T19:39:24.310Z,43.93
2022-10-15T19:41:54.228Z,42.30
2022-10-15T19:44:26.043Z,39.90
2022-10-15T19:46:55.473Z,41.47
2022-10-15T19:49:25.218Z,48.60
2022-10-15T19:51:55.919Z,46.07
2022-10-15T19:56:54.811Z,47.47
2022-10-15T19:59:23.587Z,46.63
2022-10-15T20:01:52.566Z,47.10
2022-10-15T20:04:21.238Z,49.03
2022-10-15T20:06:52.958Z,48.90
2022-10-15T20:09:23.244Z,49.43
2022-10-15T20:11:52.010Z,50.60
2022-10-15T20:14:20.748Z,43.90
2022-10-15T20:16:49.614Z,41.70
2022-10-15T20:19:18.312Z,36.33
2022-10-15T20:21:47.059Z,37.57
2022-10-15T20:24:15.746Z,39.77
2022-10-15T20:26:45.843Z,36.77
2022-10-15T20:29:17.563Z,36.13
2022-10-15T20:31:46.347Z,35.77
2022-10-15T20:34:15.096Z,37.70
2022-10-15T20:36:43.920Z,37.37
2022-10-15T20:39:12.783Z,38.23
2022-10-15T20:41:42.597Z,36.83
2022-10-15T20:44:13.673Z,114.82
2022-10-15T20:46:48.650Z,33.23
2022-10-15T20:49:20.617Z,32.40
2022-10-15T20:51:49.776Z,34.07
2022-10-15T20:54:20.533Z,32.23
2022-10-15T20:56:49.475Z,32.00
2022-10-15T20:59:19.802Z,34.30
2022-10-15T21:01:48.682Z,33.33
2022-10-15T21:04:17.712Z,38.47
2022-10-15T21:06:46.440Z,38.23
2022-10-15T21:09:15.241Z,38.57
2022-10-15T21:11:44.552Z,38.93
2022-10-15T21:14:14.723Z,34.57
2022-10-15T21:16:45.103Z,37.20
2022-10-15T21:19:14.199Z,70.28
2022-10-15T21:21:43.515Z,34.77
2022-10-15T21:24:13.142Z,42.33
2022-10-15T21:26:42.349Z,34.22
2022-10-15T21:29:16.115Z,38.80
2022-10-15T21:31:47.635Z,42.65
2022-10-15T21:34:17.000Z,41.13
2022-10-15T21:36:45.918Z,34.93
2022-10-15T21:39:14.828Z,38.93
2022-10-15T21:41:43.638Z,42.03
2022-10-15T21:44:12.710Z,34.47
2022-10-15T21:46:42.432Z,41.20
2022-10-15T21:49:14.245Z,35.97
2022-10-15T21:51:43.408Z,35.20
2022-10-15T21:54:12.390Z,33.77
2022-10-15T21:56:41.133Z,32.80
2022-10-15T21:59:09.911Z,34.63
2022-10-15T22:01:39.160Z,30.57
2022-10-15T22:04:09.925Z,30.97
2022-10-15T22:06:41.088Z,29.53
2022-10-15T22:09:10.979Z,32.33
2022-10-15T22:11:41.309Z,35.57
2022-10-15T22:14:12.463Z,33.30
2022-10-15T22:16:42.163Z,35.40
2022-10-15T22:19:12.997Z,34.23
2022-10-15T22:21:43.169Z,32.13
2022-10-15T22:24:15.096Z,37.43
2022-10-15T22:26:46.066Z,36.50
2022-10-15T22:29:20.022Z,34.40
2022-10-15T22:31:49.426Z,36.63
2022-10-15T22:34:20.175Z,35.97
2022-10-15T22:36:52.591Z,31.00
2022-10-15T22:39:25.136Z,32.00
2022-10-15T22:41:53.783Z,31.20
2022-10-15T22:44:23.344Z,29.57
2022-10-15T22:46:52.232Z,30.63
2022-10-15T22:49:22.506Z,30.03
2022-10-15T22:51:53.364Z,29.67
2022-10-15T22:54:23.562Z,29.03
2022-10-15T22:56:52.565Z,32.63
2022-10-15T22:59:21.367Z,36.00
2022-10-15T23:01:50.061Z,29.83
2022-10-15T23:04:19.099Z,32.43
2022-10-15T23:06:47.926Z,31.33
2022-10-15T23:09:20.143Z,32.73
2022-10-15T23:11:50.656Z,34.27
2022-10-15T23:14:19.534Z,81.82
2022-10-15T23:16:49.750Z,24.50
2022-10-15T23:19:19.820Z,25.07
2022-10-15T23:21:50.143Z,32.37
2022-10-15T23:24:24.084Z,30.20
2022-10-15T23:26:53.258Z,28.40
2022-10-15T23:29:23.887Z,30.93
2022-10-15T23:31:52.822Z,34.10
2022-10-15T23:34:22.913Z,32.73
2022-10-15T23:36:52.100Z,32.17
2022-10-15T23:39:25.026Z,33.67
2022-10-15T23:41:54.010Z,32.30
2022-10-15T23:44:25.801Z,31.10
2022-10-15T23:46:54.745Z,31.87
2022-10-15T23:49:23.438Z,38.30
2022-10-15T23:51:52.287Z,29.80
2022-10-15T23:54:22.474Z,27.40
2022-10-15T23:56:51.237Z,29.33
2022-10-15T23:59:21.427Z,29.77
